Time;durP1;ratioP1;P1;durP2;ratioP2;P2;SDS_P1;SDS_P2;PMS_P1;PMS_P2;Temp;Humidity;BMP_temperature;BMP_pressure;BME280_temperature;BME280_humidity;BME280_pressure;Samples;Min_cycle;Max_cycle;Signal;HPM_P1;HPM_P2
2023/09/06 00:01:29;;;;;;;4.53;4.13;;;17.10;99.90;;;;;;4908838;29;20067;-67
2023/09/06 00:03:56;;;;;;;5.97;4.60;;;17.10;99.90;;;;;;4904357;29;20072;-66
2023/09/06 00:06:23;;;;;;;5.10;4.53;;;17.00;99.90;;;;;;4887084;29;20051;-66
2023/09/06 00:08:51;;;;;;;8.25;6.72;;;17.00;99.90;;;;;;4908463;29;20415;-69
2023/09/06 00:11:18;;;;;;;4.78;4.30;;;16.90;99.90;;;;;;4902445;29;20098;-68
2023/09/06 00:13:45;;;;;;;9.90;6.18;;;16.90;99.90;;;;;;4901447;29;20048;-66
2023/09/06 00:16:12;;;;;;;9.07;5.05;;;16.90;99.90;;;;;;4901516;29;20084;-74
2023/09/06 00:18:39;;;;;;;6.97;5.85;;;16.90;99.90;;;;;;4905845;29;20058;-68
2023/09/06 00:21:06;;;;;;;7.18;6.47;;;16.90;99.90;;;;;;4904409;29;20131;-68
2023/09/06 00:23:33;;;;;;;5.50;5.00;;;16.90;99.90;;;;;;4903720;29;20527;-70
2023/09/06 00:26:00;;;;;;;8.52;5.85;;;16.90;99.90;;;;;;4899047;29;20080;-72
2023/09/06 00:28:27;;;;;;;5.65;5.15;;;16.90;99.90;;;;;;4899930;29;20041;-66
2023/09/06 00:30:57;;;;;;;8.27;4.63;;;16.90;99.90;;;;;;4905133;29;20052;-69
2023/09/06 00:33:33;;;;;;;5.57;5.07;;;17.00;99.90;;;;;;4904459;29;20471;-69
2023/09/06 00:36:04;;;;;;;8.85;5.53;;;16.90;99.90;;;;;;4889634;29;20045;-67
2023/09/06 00:38:30;;;;;;;;;;;16.90;99.90;;;;;;4887775;29;20054;-70
2023/09/06 00:40:58;;;;;;;5.35;4.85;;;16.80;99.90;;;;;;4901879;29;20301;-68
2023/09/06 00:43:26;;;;;;;7.72;5.00;;;16.80;99.90;;;;;;4900699;29;20168;-69
2023/09/06 00:45:53;;;;;;;6.45;5.28;;;16.70;99.90;;;;;;4907517;29;20463;-69
2023/09/06 00:48:26;;;;;;;6.40;5.80;;;16.60;99.90;;;;;;4905338;29;20494;-72
2023/09/06 00:50:55;;;;;;;6.70;6.07;;;16.60;99.90;;;;;;4909541;29;20047;-66
2023/09/06 00:53:24;;;;;;;7.78;5.40;;;16.60;99.90;;;;;;4904772;29;20048;-67
2023/09/06 00:55:51;;;;;;;9.63;6.20;;;16.60;99.90;;;;;;4910742;29;20497;-66
2023/09/06 00:58:20;;;;;;;7.65;6.95;;;16.60;99.90;;;;;;4911751;29;20044;-73
2023/09/06 01:00:49;;;;;;;12.60;7.70;;;16.60;99.90;;;;;;4907549;29;20775;-67
2023/09/06 01:03:17;;;;;;;8.45;5.47;;;16.60;99.90;;;;;;4904679;29;20072;-68
2023/09/06 01:05:51;;;;;;;7.28;6.25;;;16.50;99.90;;;;;;4905056;29;20060;-66
2023/09/06 01:08:47;;;;;;;11.05;6.45;;;16.60;99.90;;;;;;4908312;29;20046;-67
2023/09/06 01:11:18;;;;;;;11.73;7.00;;;16.50;99.90;;;;;;4907195;29;20393;-68
2023/09/06 01:13:54;;;;;;;15.32;10.05;;;16.50;99.90;;;;;;4908187;29;20062;-66
2023/09/06 01:16:28;;;;;;;12.73;7.93;;;16.50;99.90;;;;;;4902159;29;20387;-66
2023/09/06 01:18:56;;;;;;;8.45;6.30;;;16.40;99.90;;;;;;4903127;29;20040;-66
2023/09/06 01:21:55;;;;;;;8.80;6.45;;;16.40;99.90;;;;;;4906448;29;20040;-67
2023/09/06 01:24:23;;;;;;;8.85;6.60;;;16.40;99.90;;;;;;4895115;29;20061;-66
2023/09/06 01:26:52;;;;;;;9.43;7.38;;;16.40;99.90;;;;;;4904028;29;20143;-68
2023/09/06 01:29:19;;;;;;;7.20;5.15;;;16.30;99.90;;;;;;4905096;29;20051;-67
2023/09/06 01:31:46;;;;;;;8.38;5.28;;;16.40;99.90;;;;;;4907251;29;20049;-67
2023/09/06 01:34:13;;;;;;;8.65;6.30;;;16.40;99.90;;;;;;4902921;29;20691;-69
2023/09/06 01:36:40;;;;;;;9.80;5.70;;;16.40;99.90;;;;;;4891268;29;20573;-71
2023/09/06 01:39:10;;;;;;;6.88;4.80;;;16.40;99.90;;;;;;4907345;29;20044;-69
2023/09/06 01:41:37;;;;;;;6.72;4.90;;;16.40;99.90;;;;;;4906806;29;20052;-67
2023/09/06 01:44:04;;;;;;;6.68;5.47;;;16.40;99.90;;;;;;4906185;29;20142;-68
2023/09/06 01:46:31;;;;;;;12.07;5.32;;;16.40;99.90;;;;;;4906103;29;20594;-70
2023/09/06 01:48:59;;;;;;;5.28;4.78;;;16.40;99.90;;;;;;4893057;29;20623;-68
2023/09/06 01:51:26;;;;;;;6.50;4.68;;;16.40;99.90;;;;;;4890078;29;20537;-66
2023/09/06 01:53:53;;;;;;;9.27;5.78;;;16.40;99.90;;;;;;4909029;29;20104;-69
2023/09/06 01:56:20;;;;;;;6.07;5.47;;;16.40;99.90;;;;;;4908132;29;20479;-68
2023/09/06 01:58:47;;;;;;;7.68;5.38;;;16.40;99.90;;;;;;4905428;29;20059;-69
2023/09/06 02:01:14;;;;;;;8.52;5.50;;;16.50;99.90;;;;;;4888416;29;20055;-67
2023/09/06 02:03:41;;;;;;;5.47;3.80;;;16.50;99.90;;;;;;4905065;29;20510;-67
2023/09/06 02:06:09;;;;;;;8.60;5.53;;;16.50;99.90;;;;;;4907900;29;20103;-67
2023/09/06 03:19:33;;;;;;;1.80;1.08;;;15.90;99.90;;;;;;4907073;29;20417;-68
2023/09/06 03:22:06;;;;;;;1.23;0.80;;;15.90;99.90;;;;;;4903702;29;20072;-68
2023/09/06 03:24:33;;;;;;;1.48;0.50;;;15.90;99.90;;;;;;4902994;29;20048;-68
2023/09/06 03:27:02;;;;;;;1.50;0.50;;;15.90;99.90;;;;;;4908112;29;20131;-68
2023/09/06 03:29:33;;;;;;;6.20;1.02;;;15.90;99.90;;;;;;4900529;29;20055;-67
2023/09/06 03:32:00;;;;;;;1.15;0.60;;;15.90;99.90;;;;;;4903100;29;20455;-66
2023/09/06 03:34:27;;;;;;;0.70;0.57;;;15.90;99.90;;;;;;4901640;29;20056;-66
2023/09/06 03:36:55;;;;;;;0.95;0.75;;;15.90;99.90;;;;;;4899792;29;20060;-68
2023/09/06 03:39:28;;;;;;;3.53;1.13;;;15.80;99.90;;;;;;4907341;29;20056;-66
2023/09/06 03:42:00;;;;;;;2.53;0.88;;;15.80;99.90;;;;;;4910083;29;20052;-69
2023/09/06 03:44:31;;;;;;;2.33;0.52;;;15.80;99.90;;;;;;4903332;29;20063;-71
2023/09/06 03:46:58;;;;;;;1.58;1.05;;;15.80;99.90;;;;;;4903332;29;20066;-66
2023/09/06 03:49:26;;;;;;;1.50;0.70;;;15.80;99.90;;;;;;4903622;29;20052;-70
2023/09/06 03:51:56;;;;;;;2.30;0.77;;;15.80;99.90;;;;;;4899174;29;20413;-67
2023/09/06 03:54:24;;;;;;;1.40;0.80;;;15.70;99.90;;;;;;4894041;29;20586;-66
2023/09/06 03:56:52;;;;;;;0.80;0.50;;;15.70;99.90;;;;;;4896009;29;20614;-67
2023/09/06 03:59:21;;;;;;;2.88;0.35;;;15.70;99.90;;;;;;4899718;29;20066;-70
2023/09/06 04:01:48;;;;;;;0.88;0.50;;;15.60;99.90;;;;;;4892745;29;20790;-67
2023/09/06 04:04:15;;;;;;;2.83;0.70;;;15.60;99.90;;;;;;4904120;29;20447;-68
2023/09/06 04:06:43;;;;;;;1.60;0.95;;;15.50;99.90;;;;;;4897792;29;20080;-67
2023/09/06 04:09:18;;;;;;;2.33;0.47;;;15.50;99.90;;;;;;4897447;29;20100;-66
2023/09/06 04:11:46;;;;;;;3.72;1.48;;;15.40;99.90;;;;;;4890450;29;20062;-65
2023/09/06 04:14:14;;;;;;;2.78;0.63;;;15.40;99.90;;;;;;4907055;29;20446;-67
2023/09/06 04:16:42;;;;;;;1.02;0.38;;;15.30;99.90;;;;;;4896696;29;20055;-66
2023/09/06 04:19:09;;;;;;;3.03;1.05;;;15.30;99.90;;;;;;4906872;29;20473;-68
2023/09/06 04:21:37;;;;;;;1.40;0.50;;;15.30;99.90;;;;;;4905714;29;20458;-69
2023/09/06 04:24:08;;;;;;;2.47;1.23;;;15.20;99.90;;;;;;4905396;29;20048;-68
2023/09/06 04:26:35;;;;;;;2.63;1.05;;;15.20;99.90;;;;;;4898334;29;20044;-67
2023/09/06 04:29:05;;;;;;;0.63;0.50;;;15.20;99.90;;;;;;4904897;29;20040;-68
2023/09/06 04:31:32;;;;;;;2.97;1.23;;;15.20;99.90;;;;;;4905768;29;20395;-65
2023/09/06 04:34:01;;;;;;;2.38;1.02;;;15.10;99.90;;;;;;4885982;29;20053;-68
2023/09/06 04:36:28;;;;;;;1.33;0.80;;;15.10;99.90;;;;;;4900182;29;20150;-69
2023/09/06 04:38:59;;;;;;;3.33;0.85;;;15.10;99.90;;;;;;4895376;29;20319;-66
2023/09/06 04:41:31;;;;;;;3.25;0.77;;;15.00;99.90;;;;;;4890631;29;20052;-67
2023/09/06 04:44:01;;;;;;;2.97;1.20;;;15.00;99.90;;;;;;4893736;29;20052;-67
2023/09/06 04:46:29;;;;;;;1.50;0.70;;;15.00;99.90;;;;;;4904793;29;20058;-66
2023/09/06 04:48:57;;;;;;;2.58;1.17;;;15.00;99.90;;;;;;4900237;29;20044;-67
2023/09/06 04:51:24;;;;;;;2.75;0.90;;;14.90;99.90;;;;;;4889242;29;20084;-66
2023/09/06 04:53:51;;;;;;;4.07;0.57;;;14.90;99.90;;;;;;4905804;29;20056;-68
2023/09/06 04:56:25;;;;;;;3.15;1.17;;;15.00;99.90;;;;;;4904856;29;20095;-66
2023/09/06 04:58:52;;;;;;;2.08;0.60;;;15.00;99.90;;;;;;4905070;29;20558;-67
2023/09/06 05:01:19;;;;;;;2.95;0.88;;;14.90;99.90;;;;;;4907729;29;20095;-72
2023/09/06 05:03:47;;;;;;;0.98;0.40;;;15.00;99.90;;;;;;4893295;29;20088;-65
2023/09/06 05:06:14;;;;;;;2.83;1.00;;;14.90;99.90;;;;;;4891161;29;20056;-66
2023/09/06 05:08:42;;;;;;;5.95;0.98;;;15.00;99.90;;;;;;4889809;29;20076;-72
2023/09/06 05:11:16;;;;;;;5.93;0.70;;;15.00;99.90;;;;;;4903222;29;20067;-66
2023/09/06 05:13:47;;;;;;;2.10;0.75;;;15.00;99.90;;;;;;4900359;29;20111;-67
2023/09/06 05:16:15;;;;;;;1.55;0.90;;;15.00;99.90;;;;;;4906939;29;20506;-67
2023/09/06 05:18:43;;;;;;;2.60;0.95;;;15.00;99.90;;;;;;4888793;29;20607;-65
2023/09/06 05:21:11;;;;;;;3.95;0.90;;;15.00;99.90;;;;;;4901809;29;20052;-66
2023/09/06 05:23:38;;;;;;;1.20;0.82;;;15.10;99.90;;;;;;4887279;29;20052;-66
2023/09/06 05:26:06;;;;;;;1.70;0.60;;;15.10;99.90;;;;;;4906384;29;20556;-66
2023/09/06 05:28:43;;;;;;;2.40;0.88;;;15.10;99.90;;;;;;4894315;29;20075;-65
2023/09/06 05:31:12;;;;;;;1.92;1.25;;;15.10;99.90;;;;;;4903423;29;20407;-67
2023/09/06 05:33:42;;;;;;;2.47;1.07;;;15.10;99.90;;;;;;4884849;29;20053;-66
2023/09/06 05:36:11;;;;;;;6.18;1.23;;;15.20;99.90;;;;;;4903962;29;20116;-66
2023/09/06 05:38:38;;;;;;;1.42;0.75;;;15.20;99.90;;;;;;4905146;29;20289;-67
2023/09/06 06:51:35;;;;;;;1.63;0.70;;;16.50;99.90;;;;;;4905485;29;20055;-66
2023/09/06 06:54:09;;;;;;;2.13;0.82;;;16.60;99.90;;;;;;4906580;29;20092;-67
2023/09/06 06:56:37;;;;;;;1.65;0.43;;;16.60;99.90;;;;;;4903026;29;20089;-67
2023/09/06 06:59:04;;;;;;;1.83;0.77;;;16.60;99.90;;;;;;4903516;29;20045;-67
2023/09/06 07:01:31;;;;;;;4.00;0.80;;;16.70;99.90;;;;;;4885529;29;20392;-68
2023/09/06 07:03:58;;;;;;;2.38;0.60;;;16.70;99.90;;;;;;4903896;29;20048;-66
2023/09/06 07:06:26;;;;;;;1.90;0.80;;;16.80;99.90;;;;;;4902828;29;20052;-67
2023/09/06 07:08:54;;;;;;;1.25;0.45;;;16.80;99.90;;;;;;4901410;29;20048;-68
2023/09/06 07:11:21;;;;;;;0.95;0.50;;;16.90;99.90;;;;;;4908495;29;20130;-66
2023/09/06 07:13:50;;;;;;;1.70;0.80;;;16.90;99.90;;;;;;4905250;29;20099;-66
2023/09/06 07:16:19;;;;;;;1.65;0.77;;;17.00;99.90;;;;;;4905184;29;20613;-68
2023/09/06 07:18:47;;;;;;;3.03;0.40;;;17.00;99.90;;;;;;4903024;29;20067;-68
2023/09/06 07:21:15;;;;;;;1.27;0.65;;;17.10;99.90;;;;;;4903520;29;20048;-72
2023/09/06 07:23:42;;;;;;;2.28;0.70;;;17.10;99.90;;;;;;4904752;29;20052;-67
2023/09/06 07:26:10;;;;;;;2.35;0.43;;;17.10;99.90;;;;;;4907285;29;20091;-68
2023/09/06 07:28:45;;;;;;;1.30;0.60;;;17.20;99.90;;;;;;4901906;29;20064;-68
2023/09/06 07:31:14;;;;;;;1.00;0.50;;;17.20;99.90;;;;;;4887377;29;20471;-67
2023/09/06 07:33:41;;;;;;;4.65;1.10;;;17.20;99.90;;;;;;4904762;29;20479;-69
2023/09/06 07:36:08;;;;;;;2.03;0.65;;;17.30;99.90;;;;;;4904585;29;20088;-67
2023/09/06 07:38:35;;;;;;;0.82;0.60;;;17.40;99.90;;;;;;4903973;29;20064;-67
2023/09/06 07:41:05;;;;;;;1.63;0.38;;;17.40;99.90;;;;;;4906893;29;20526;-68
2023/09/06 07:43:33;;;;;;;1.52;0.73;;;17.40;99.90;;;;;;4904236;29;20053;-68
2023/09/06 07:46:01;;;;;;;3.67;0.88;;;17.50;99.90;;;;;;4902384;29;20048;-66
2023/09/06 07:48:30;;;;;;;1.33;0.45;;;17.50;99.90;;;;;;4902808;29;20403;-67
2023/09/06 07:50:59;;;;;;;1.03;0.40;;;17.60;99.90;;;;;;4902296;29;20076;-69
2023/09/06 07:53:26;;;;;;;0.73;0.73;;;17.60;99.90;;;;;;4904445;29;20504;-69
2023/09/06 07:55:55;;;;;;;1.45;0.25;;;17.70;99.90;;;;;;4902060;29;20099;-67
2023/09/06 07:58:22;;;;;;;0.63;0.30;;;17.80;99.90;;;;;;4908779;29;20048;-67
2023/09/06 08:00:50;;;;;;;1.00;0.38;;;17.80;99.90;;;;;;4912801;29;20458;-67
2023/09/06 08:03:33;;;;;;;1.90;0.35;;;17.80;99.90;;;;;;4909102;29;20062;-67
2023/09/06 08:06:00;;;;;;;5.20;1.20;;;17.90;99.90;;;;;;4906655;29;20059;-67
2023/09/06 08:08:27;;;;;;;0.68;0.47;;;18.00;99.90;;;;;;4913116;29;20040;-70
2023/09/06 08:10:55;;;;;;;2.83;0.57;;;18.00;99.90;;;;;;4909671;29;20470;-69
2023/09/06 08:13:22;;;;;;;2.28;0.50;;;18.20;99.90;;;;;;4907465;29;20116;-66
2023/09/06 08:15:48;;;;;;;2.75;0.75;;;18.20;99.90;;;;;;4909834;29;20060;-73
2023/09/06 08:18:15;;;;;;;2.50;0.65;;;18.20;99.90;;;;;;4890935;29;20044;-67
2023/09/06 08:20:42;;;;;;;1.27;0.70;;;18.20;99.90;;;;;;4905287;29;20108;-67
2023/09/06 08:23:10;;;;;;;0.68;0.40;;;18.30;99.90;;;;;;4909201;29;20048;-68
2023/09/06 08:25:37;;;;;;;1.33;0.50;;;18.30;99.90;;;;;;4903633;29;20043;-71
2023/09/06 08:28:05;;;;;;;2.35;0.60;;;18.40;99.90;;;;;;4908090;29;20128;-69
2023/09/06 08:30:33;;;;;;;0.40;0.30;;;18.50;99.90;;;;;;4905063;29;20139;-67
2023/09/06 08:33:00;;;;;;;0.75;0.30;;;18.50;99.90;;;;;;4905892;29;20078;-70
2023/09/06 08:35:27;;;;;;;1.33;0.45;;;18.50;99.90;;;;;;4906967;29;20597;-67
2023/09/06 08:37:54;;;;;;;2.38;1.45;;;18.60;99.90;;;;;;4906589;29;20442;-67
2023/09/06 08:40:21;;;;;;;0.68;0.28;;;18.60;99.90;;;;;;4905181;29;20059;-70
2023/09/06 08:42:49;;;;;;;0.57;0.25;;;18.60;99.90;;;;;;4907980;29;20055;-67
2023/09/06 08:45:21;;;;;;;0.82;0.57;;;18.70;99.90;;;;;;4906430;29;20135;-68
2023/09/06 08:47:50;;;;;;;1.73;0.35;;;18.70;99.90;;;;;;4903624;29;20045;-66
2023/09/06 08:50:17;;;;;;;0.57;0.30;;;18.80;99.90;;;;;;4892240;29;20079;-70
2023/09/06 08:52:45;;;;;;;5.35;1.00;;;18.80;99.90;;;;;;4905894;29;20506;-67
2023/09/06 08:55:12;;;;;;;1.08;0.45;;;18.80;99.90;;;;;;4906488;29;20056;-67
2023/09/06 08:57:40;;;;;;;1.77;0.63;;;18.90;99.90;;;;;;4908367;29;20047;-67
2023/09/06 09:00:09;;;;;;;1.02;0.98;;;18.90;99.90;;;;;;4896412;29;20494;-68
2023/09/06 09:02:37;;;;;;;2.22;0.40;;;18.90;99.90;;;;;;4906171;29;20549;-69
2023/09/06 09:05:05;;;;;;;3.03;0.40;;;18.90;99.90;;;;;;4906340;29;20504;-67
2023/09/06 09:07:47;;;;;;;0.75;0.30;;;18.90;99.90;;;;;;4906493;29;20426;-67
2023/09/06 09:10:14;;;;;;;2.60;0.63;;;19.00;99.90;;;;;;4903686;29;20465;-66
2023/09/06 09:12:41;;;;;;;0.60;0.20;;;18.90;99.90;;;;;;4904279;29;21082;-67
2023/09/06 09:15:08;;;;;;;0.52;0.47;;;19.00;99.90;;;;;;4903900;29;20140;-67
2023/09/06 09:17:50;;;;;;;7.55;1.45;;;19.10;99.90;;;;;;4905602;29;20055;-67
2023/09/06 09:20:26;;;;;;;1.40;0.70;;;19.30;99.90;;;;;;4904778;29;20094;-71
2023/09/06 09:23:01;;;;;;;2.10;0.30;;;19.40;99.90;;;;;;4905695;29;20123;-67
2023/09/06 09:25:29;;;;;;;0.90;0.30;;;19.40;99.90;;;;;;4906398;29;20052;-68
2023/09/06 09:27:57;;;;;;;0.88;0.45;;;19.40;99.90;;;;;;4902680;29;20052;-66
2023/09/06 09:30:27;;;;;;;1.05;0.30;;;19.50;99.90;;;;;;4909405;29;20048;-68
2023/09/06 09:33:03;;;;;;;0.20;0.20;;;19.50;99.90;;;;;;4903731;29;20475;-67
2023/09/06 09:35:32;;;;;;;0.98;0.40;;;19.50;99.90;;;;;;4906858;29;20454;-69
2023/09/06 09:38:01;;;;;;;0.45;0.40;;;19.70;99.90;;;;;;4903973;29;20642;-68
2023/09/06 09:40:32;;;;;;;4.25;0.82;;;19.70;99.90;;;;;;4903548;29;20127;-68
2023/09/06 09:43:16;;;;;;;1.30;0.30;;;19.90;99.90;;;;;;4905691;29;20044;-66
2023/09/06 09:45:45;;;;;;;4.15;0.40;;;20.00;99.90;;;;;;4907243;29;20083;-69
2023/09/06 09:48:15;;;;;;;1.00;0.45;;;20.10;99.90;;;;;;4908135;29;20071;-68
2023/09/06 09:50:44;;;;;;;2.20;0.40;;;20.20;99.90;;;;;;4887510;29;20627;-68
2023/09/06 09:53:12;;;;;;;0.20;0.20;;;20.20;99.90;;;;;;4902126;29;20077;-67
2023/09/06 09:55:47;;;;;;;1.77;0.60;;;20.10;99.90;;;;;;4908147;29;20052;-67
2023/09/06 09:58:17;;;;;;;2.22;0.40;;;20.20;99.90;;;;;;4907871;29;20052;-68
2023/09/06 10:00:44;;;;;;;4.47;0.52;;;20.20;99.90;;;;;;4903233;29;20051;-68
2023/09/06 10:03:13;;;;;;;2.63;0.50;;;20.10;99.90;;;;;;4911247;29;20040;-67
2023/09/06 10:05:41;;;;;;;1.88;0.40;;;20.20;99.90;;;;;;4909442;29;20127;-66
2023/09/06 10:08:10;;;;;;;0.55;0.40;;;20.40;99.90;;;;;;4904484;29;20048;-67
2023/09/06 10:10:40;;;;;;;2.00;0.30;;;20.50;99.90;;;;;;4905288;29;20044;-67
2023/09/06 10:13:08;;;;;;;2.03;0.40;;;20.50;99.90;;;;;;4904702;29;20130;-71
2023/09/06 10:15:37;;;;;;;3.25;0.45;;;20.50;99.90;;;;;;4909162;29;20056;-72
2023/09/06 10:18:06;;;;;;;2.45;1.30;;;20.70;99.90;;;;;;4909519;29;20495;-69
2023/09/06 10:20:36;;;;;;;2.83;0.67;;;20.80;99.90;;;;;;4906014;29;20060;-66
2023/09/06 10:23:06;;;;;;;4.43;1.80;;;20.70;99.90;;;;;;4902956;29;20310;-69
2023/09/06 10:25:41;;;;;;;3.03;0.60;;;20.80;99.90;;;;;;4904220;29;20134;-67
2023/09/06 10:28:08;;;;;;;2.63;0.45;;;20.80;99.90;;;;;;4905109;29;20052;-68
2023/09/06 10:30:42;;;;;;;2.20;0.40;;;20.90;99.90;;;;;;4904004;29;20075;-66
2023/09/06 10:33:10;;;;;;;2.13;0.85;;;21.00;99.90;;;;;;4906057;29;20148;-67
2023/09/06 10:35:43;;;;;;;1.70;0.85;;;21.10;99.90;;;;;;4907647;29;20527;-70
2023/09/06 10:38:14;;;;;;;3.22;1.08;;;21.10;99.90;;;;;;4908594;29;20044;-66
2023/09/06 10:40:47;;;;;;;1.35;0.57;;;21.10;99.90;;;;;;4909572;29;20051;-68
2023/09/06 10:43:17;;;;;;;2.05;0.50;;;21.20;99.90;;;;;;4906198;29;20055;-70
2023/09/06 10:46:18;;;;;;;5.07;1.00;;;21.30;99.90;;;;;;4908435;29;20515;-68
2023/09/06 10:49:13;;;;;;;0.25;0.20;;;21.30;99.90;;;;;;4904546;29;20479;-68
2023/09/06 10:52:01;;;;;;;2.22;0.60;;;21.20;99.90;;;;;;4904983;29;20570;-67
2023/09/06 10:54:39;;;;;;;0.98;0.40;;;21.20;99.90;;;;;;4906616;29;20053;-66
2023/09/06 10:57:07;;;;;;;1.08;0.50;;;21.20;99.90;;;;;;4902566;29;20044;-68
2023/09/06 10:59:38;;;;;;;1.80;0.75;;;21.30;99.90;;;;;;4906343;29;20040;-67
2023/09/06 11:02:16;;;;;;;2.22;1.40;;;21.40;99.90;;;;;;4905214;29;20059;-68
2023/09/06 11:04:47;;;;;;;2.83;0.80;;;21.50;99.90;;;;;;4900708;29;20057;-67
2023/09/06 11:07:14;;;;;;;1.33;0.55;;;21.40;99.90;;;;;;4902777;29;20517;-67
2023/09/06 11:09:50;;;;;;;2.38;1.15;;;21.20;99.90;;;;;;4907905;29;20059;-68
2023/09/06 11:12:17;;;;;;;2.28;0.75;;;21.10;99.90;;;;;;4898937;29;20048;-70
2023/09/06 11:14:53;;;;;;;0.70;0.40;;;21.00;99.90;;;;;;4904511;29;20059;-67
2023/09/06 11:17:23;;;;;;;3.05;0.65;;;20.80;99.90;;;;;;4903952;29;20075;-67
2023/09/06 11:19:51;;;;;;;3.85;0.57;;;20.80;99.90;;;;;;4901143;29;20514;-68
2023/09/06 11:22:19;;;;;;;2.33;0.35;;;20.80;99.90;;;;;;4902746;29;20056;-68
2023/09/06 11:24:48;;;;;;;0.70;0.50;;;20.70;99.90;;;;;;4903208;29;20150;-68
2023/09/06 11:27:24;;;;;;;1.10;0.50;;;20.80;99.90;;;;;;4899831;29;20056;-69
2023/09/06 11:30:16;;;;;;;2.80;0.60;;;21.10;99.90;;;;;;4905577;29;20128;-71
2023/09/06 11:32:44;;;;;;;1.55;0.90;;;21.10;99.90;;;;;;4906772;29;20054;-69
2023/09/06 11:35:13;;;;;;;2.45;0.55;;;21.10;99.90;;;;;;4887648;29;20056;-69
2023/09/06 11:37:49;;;;;;;2.17;0.73;;;21.20;99.90;;;;;;4904000;29;20487;-68
2023/09/06 11:40:20;;;;;;;1.88;0.98;;;21.30;99.90;;;;;;4903165;29;20040;-69
2023/09/06 11:42:53;;;;;;;1.30;0.43;;;21.50;99.90;;;;;;4902841;29;20048;-67
2023/09/06 11:45:21;;;;;;;2.60;0.80;;;21.70;99.90;;;;;;4905332;29;20049;-68
2023/09/06 11:47:51;;;;;;;0.70;0.50;;;21.90;99.90;;;;;;4901221;29;20053;-69
2023/09/06 11:50:19;;;;;;;1.98;0.50;;;21.90;99.90;;;;;;4886405;29;20052;-68
2023/09/06 11:52:48;;;;;;;3.17;0.80;;;21.80;99.90;;;;;;4906552;29;20171;-68
2023/09/06 11:55:26;;;;;;;0.70;0.50;;;21.80;99.90;;;;;;4905600;29;20482;-67
2023/09/06 11:57:56;;;;;;;10.17;1.93;;;22.00;99.90;;;;;;4905404;29;20055;-69
2023/09/06 12:00:45;;;;;;;1.15;0.32;;;22.20;99.90;;;;;;4900438;29;20064;-68
2023/09/06 12:03:13;;;;;;;1.58;0.40;;;22.30;99.90;;;;;;4903050;29;20087;-69
2023/09/06 12:05:46;;;;;;;1.13;0.68;;;22.30;99.90;;;;;;4905831;29;20096;-67
2023/09/06 12:08:22;;;;;;;1.33;0.55;;;22.30;99.90;;;;;;4908333;29;20051;-67
2023/09/06 12:11:05;;;;;;;0.93;0.82;;;22.40;99.90;;;;;;4904684;29;20045;-67
2023/09/06 12:13:34;;;;;;;5.05;0.88;;;22.50;99.90;;;;;;4903034;29;20048;-67
2023/09/06 12:16:04;;;;;;;2.53;0.32;;;22.30;99.90;;;;;;4905126;29;20562;-68
2023/09/06 12:18:32;;;;;;;1.13;0.68;;;22.20;99.90;;;;;;4899782;29;20407;-68
2023/09/06 12:20:59;;;;;;;2.72;0.93;;;22.30;99.90;;;;;;4901571;29;20076;-68
2023/09/06 12:23:30;;;;;;;0.63;0.40;;;22.40;99.90;;;;;;4899617;29;20162;-69
2023/09/06 12:25:59;;;;;;;7.50;1.60;;;22.50;99.90;;;;;;4901468;29;20132;-68
2023/09/06 12:28:27;;;;;;;1.33;0.50;;;22.50;99.90;;;;;;4902956;29;20092;-67
2023/09/06 12:31:00;;;;;;;4.47;0.80;;;22.40;99.90;;;;;;4902582;29;20051;-70
2023/09/06 12:33:27;;;;;;;1.58;0.35;;;22.20;99.90;;;;;;4901582;29;20455;-68
2023/09/06 12:36:01;;;;;;;0.65;0.28;;;22.10;99.90;;;;;;4905217;29;20075;-69
2023/09/06 12:38:30;;;;;;;2.03;0.60;;;22.00;99.90;;;;;;4902073;29;20055;-67
2023/09/06 12:40:58;;;;;;;2.15;0.40;;;22.20;99.90;;;;;;4907089;29;20052;-67
2023/09/06 12:43:26;;;;;;;2.15;0.45;;;22.30;99.90;;;;;;4903492;29;20121;-67
2023/09/06 12:45:53;;;;;;;1.92;0.68;;;22.50;99.90;;;;;;4909504;29;20182;-67
2023/09/06 12:48:21;;;;;;;1.10;0.50;;;22.50;99.90;;;;;;4907064;29;20055;-70
2023/09/06 12:50:49;;;;;;;1.17;0.57;;;22.60;99.90;;;;;;4909355;29;20060;-73
2023/09/06 12:53:16;;;;;;;2.72;0.60;;;22.60;99.90;;;;;;4906221;29;20048;-67
2023/09/06 12:55:46;;;;;;;1.17;0.55;;;22.60;99.90;;;;;;4907179;29;20056;-67
2023/09/06 12:58:14;;;;;;;1.33;0.60;;;22.70;99.90;;;;;;4909871;29;20406;-69
2023/09/06 13:00:41;;;;;;;0.95;0.25;;;22.80;99.90;;;;;;4907415;29;20056;-66
2023/09/06 13:03:08;;;;;;;0.98;0.40;;;22.70;99.90;;;;;;4905890;29;20059;-66
2023/09/06 13:05:39;;;;;;;0.60;0.22;;;22.90;99.90;;;;;;4909745;29;20116;-70
2023/09/06 13:08:06;;;;;;;2.25;0.47;;;22.80;99.90;;;;;;4906663;29;20423;-68
2023/09/06 13:10:32;;;;;;;1.63;0.40;;;22.50;99.90;;;;;;4905008;29;20028;-68
2023/09/06 13:12:59;;;;;;;1.25;0.30;;;22.40;99.90;;;;;;4907100;29;20058;-69
2023/09/06 13:15:26;;;;;;;2.55;0.77;;;22.50;99.90;;;;;;4905319;29;20491;-67
2023/09/06 13:17:53;;;;;;;3.45;0.60;;;22.50;99.90;;;;;;4906408;29;20052;-66
2023/09/06 13:20:20;;;;;;;0.95;0.22;;;22.50;99.90;;;;;;4904771;29;20044;-67
2023/09/06 13:22:47;;;;;;;0.88;0.40;;;22.20;99.90;;;;;;4892816;29;20108;-67
2023/09/06 13:25:14;;;;;;;1.00;0.40;;;22.30;99.90;;;;;;4909040;29;20108;-66
2023/09/06 13:27:44;;;;;;;2.88;0.60;;;22.30;99.90;;;;;;4907095;29;20044;-71
2023/09/06 13:30:11;;;;;;;;;;;22.40;99.90;;;;;;4909935;29;20130;-68
2023/09/06 13:32:38;;;;;;;3.22;0.60;;;22.50;99.90;;;;;;4904822;29;20327;-68
2023/09/06 13:35:05;;;;;;;1.35;0.30;;;22.50;99.90;;;;;;4906433;29;20048;-67
2023/09/06 13:37:32;;;;;;;0.80;0.43;;;22.50;99.90;;;;;;4907694;29;20127;-66
2023/09/06 13:39:59;;;;;;;1.60;0.70;;;22.60;99.90;;;;;;4908251;29;20582;-67
2023/09/06 13:42:28;;;;;;;0.90;0.57;;;22.70;99.90;;;;;;4908027;29;20756;-68
2023/09/06 13:44:55;;;;;;;0.77;0.30;;;22.80;99.90;;;;;;4903773;29;20048;-67
2023/09/06 13:47:22;;;;;;;1.15;0.40;;;23.00;99.90;;;;;;4913699;29;20528;-66
2023/09/06 13:49:50;;;;;;;1.90;0.40;;;23.10;99.90;;;;;;4893549;29;20537;-73
2023/09/06 13:52:17;;;;;;;0.82;0.30;;;23.10;99.90;;;;;;4906495;29;20054;-76
2023/09/06 13:54:45;;;;;;;2.65;0.73;;;23.10;99.90;;;;;;4903516;29;20062;-67
2023/09/06 13:57:11;;;;;;;2.45;0.57;;;22.90;99.90;;;;;;4907810;29;20096;-68
2023/09/06 13:59:40;;;;;;;0.73;0.50;;;22.90;99.90;;;;;;4908309;29;20120;-68
2023/09/06 14:02:08;;;;;;;1.00;0.40;;;23.00;99.90;;;;;;4904919;29;20055;-68
2023/09/06 14:04:36;;;;;;;2.15;0.82;;;23.10;99.90;;;;;;4906056;29;20047;-70
2023/09/06 14:07:03;;;;;;;2.55;0.63;;;23.20;99.90;;;;;;4909155;29;20044;-68
2023/09/06 14:09:30;;;;;;;2.08;0.50;;;23.40;99.90;;;;;;4908274;29;20044;-68
2023/09/06 14:11:57;;;;;;;6.07;3.03;;;23.40;99.90;;;;;;4913218;29;20056;-67
2023/09/06 14:14:24;;;;;;;3.53;0.70;;;23.30;99.90;;;;;;4906235;29;20131;-67
2023/09/06 14:16:52;;;;;;;3.30;0.65;;;23.30;99.90;;;;;;4906546;29;20052;-66
2023/09/06 14:19:19;;;;;;;5.60;1.23;;;23.20;99.90;;;;;;4906197;29;20076;-69
2023/09/06 14:21:47;;;;;;;1.83;0.40;;;23.20;99.90;;;;;;4907520;29;20072;-67
2023/09/06 14:24:15;;;;;;;2.10;0.43;;;23.20;99.90;;;;;;4907831;29;20138;-69
2023/09/06 14:26:43;;;;;;;0.57;0.20;;;23.10;99.90;;;;;;4909483;29;20055;-70
2023/09/06 14:29:11;;;;;;;2.45;0.60;;;23.10;99.90;;;;;;4907797;29;20058;-71
2023/09/06 14:31:39;;;;;;;3.25;0.63;;;23.20;99.90;;;;;;4905913;29;20075;-73
2023/09/06 14:34:06;;;;;;;0.50;0.30;;;23.20;99.90;;;;;;4905929;29;20052;-69
2023/09/06 14:36:33;;;;;;;1.48;1.00;;;23.20;99.90;;;;;;4908369;29;20047;-69
2023/09/06 14:39:02;;;;;;;1.58;0.50;;;23.20;99.90;;;;;;4904924;29;20104;-70
2023/09/06 14:41:32;;;;;;;0.93;0.40;;;23.20;99.90;;;;;;4904301;29;20044;-68
2023/09/06 14:43:59;;;;;;;2.38;0.90;;;23.30;99.90;;;;;;4908143;29;20514;-68
2023/09/06 14:46:26;;;;;;;1.17;0.50;;;23.20;99.90;;;;;;4904948;29;20044;-68
2023/09/06 14:48:53;;;;;;;1.42;0.65;;;23.10;99.90;;;;;;4902825;29;20053;-68
2023/09/06 14:51:20;;;;;;;1.60;0.50;;;22.80;99.90;;;;;;4903596;29;20063;-68
2023/09/06 14:53:47;;;;;;;0.70;0.50;;;22.60;99.90;;;;;;4908217;29;20048;-67
2023/09/06 14:56:15;;;;;;;3.53;0.65;;;22.40;99.90;;;;;;4903182;29;20370;-67
2023/09/06 14:58:43;;;;;;;4.10;2.35;;;22.30;99.90;;;;;;4901573;29;20044;-66
2023/09/06 15:01:11;;;;;;;3.97;0.77;;;22.20;99.90;;;;;;4903551;29;20123;-67
2023/09/06 15:03:38;;;;;;;1.25;0.77;;;21.90;99.90;;;;;;4901649;29;20139;-68
2023/09/06 15:06:07;;;;;;;3.42;1.60;;;21.50;99.90;;;;;;4901502;29;20390;-67
2023/09/06 15:08:34;;;;;;;1.88;0.50;;;21.30;99.90;;;;;;4906993;29;20052;-70
2023/09/06 15:11:01;;;;;;;3.33;0.50;;;21.30;99.90;;;;;;4902867;29;20103;-71
2023/09/06 15:13:28;;;;;;;1.48;1.05;;;21.20;99.90;;;;;;4903878;29;20593;-68
2023/09/06 15:15:55;;;;;;;1.85;0.57;;;21.20;99.90;;;;;;4904531;29;20049;-66
2023/09/06 15:18:23;;;;;;;2.63;0.60;;;21.10;99.90;;;;;;4900599;29;20378;-67
2023/09/06 15:20:51;;;;;;;5.68;1.50;;;21.00;99.90;;;;;;4905034;29;20104;-68